Middle Georgia Regional Airport Airport (MCN)

 

Airport Diagram
Current Weather/Forecast (VFR Conditions)
METAR KMCN 220453Z AUTO 00000KT 7SM CLR 05/04 A3017 RMK AO2 SLP215 T00500039 402000017
TAF KMCN 212330Z 2200/2224 16006KT P6SM FEW150 SCT200 FM221100 21003KT P6SM SCT150 BKN250 FM221600 22005KT P6SM BKN150 FM222100 20004KT P6SM FEW035 BKN150

All Charts
General
Chart Name Download
AIRPORT DIAGRAM
TAKEOFF MINIMUMS
ALTERNATE MINIMUMS

Approaches
Chart Name Download
ILS OR LOC RWY 05
ILS RWY 05 (SA CAT I - II)
RNAV (GPS) RWY 05
RNAV (GPS) RWY 14
RNAV (GPS) RWY 23
RNAV (GPS) RWY 32
VOR RWY 14
VOR RWY 23


Inbound Traffic (Arrivals)

No inbound traffic.


Outbound Traffic (Departures)

No outbound traffic.